Latest Weather Observations for Liawenee

IDT60801

Issued at 7:02 pm EDT Monday 23 October 2017 (issued every 30 minutes, with the page automatically refreshed every 10 minutes)

About weather observations | Map of weather stations | Latest weather observations for TAS | Other Formats
Station Details ID: 096033 Name: LIAWENEE Lat: -41.90 Lon: 146.67 Height: 1057.0 m
Data from the previous 72 hours. | See also: Recent months at Liawenee
Date/Time
EDT
Temp
°C
App
Temp
°C
Dew
Point
°C
Rel
Hum
%
Delta-T
°C
Wind Press
QNH
hPa
Press
MSL
hPa
Rain since
9am
mm
Dir  Spd
km/h
Gust
km/h
Spd
kts
Gust
kts
23/07:00pm 9.7 6.4 9.4 98 0.2 SSW 17 22 9 12 1013.7 1014.1 3.8
23/06:30pm 11.1 9.2 10.5 96 0.3 SSW 11 17 6 9 1013.7 1014.1 3.8
23/06:00pm 11.7 10.9 11.1 96 0.3 N 6 7 3 4 1013.5 1013.9 3.8
23/05:30pm 11.8 10.8 10.9 94 0.5 SW 7 11 4 6 1013.2 1013.5 3.8
23/05:00pm 12.0 11.2 9.7 86 1.2 NW 4 17 2 9 1013.4 1013.8 3.6
23/04:30pm 13.8 12.5 10.0 78 2.1 NNW 7 13 4 7 1013.0 1013.3 1.2
23/04:00pm 15.8 13.4 10.1 69 3.2 NW 13 22 7 12 1012.6 1013.0 1.2
23/03:30pm 16.6 13.9 10.2 66 3.6 NW 15 26 8 14 1013.0 1013.3 1.2
23/03:00pm 16.5 14.0 9.7 64 3.8 NW 13 20 7 11 1013.2 1013.5 1.2
23/02:30pm 16.1 13.8 10.4 69 3.2 NNW 13 22 7 12 1013.4 1013.8 1.2
23/02:00pm 14.0 12.8 11.7 86 1.3 ENE 9 13 5 7 1013.7 1014.1 1.2
23/01:30pm 12.8 11.9 11.5 92 0.7 ENE 7 9 4 5 1014.1 1014.5 1.2
23/01:00pm 12.8 11.3 10.5 86 1.3 SE 9 13 5 7 1014.4 1014.8 0.2
23/12:30pm 13.9 11.6 8.9 72 2.7 ENE 11 13 6 7 1014.6 1015.0 0.0
23/12:00pm 16.0 13.6 10.1 68 3.3 E 13 17 7 9 1014.6 1015.0 0.0
23/11:30am 15.5 13.6 9.2 66 3.4 E 9 17 5 9 1015.0 1015.4 0.0
23/11:00am 15.6 14.1 9.3 66 3.4 SSE 7 13 4 7 1015.1 1015.5 0.0
23/10:30am 15.5 14.3 10.3 71 2.9 W 7 15 4 8 1015.4 1015.8 0.0
23/10:00am 13.7 12.2 9.2 74 2.4 S 7 13 4 7 1015.4 1015.8 0.0
23/09:30am 12.6 10.9 8.5 76 2.2 NNW 7 11 4 6 1015.5 1015.9 0.0
23/09:00am 11.6 8.4 8.5 81 1.6 W 15 20 8 11 1015.5 1015.9 0.0
23/08:30am 10.5 8.2 8.9 90 0.8 W 11 17 6 9 1015.6 1016.0 0.0
23/08:00am 9.6 6.4 8.4 92 0.6 WSW 15 20 8 11 1015.4 1015.8 0.0
23/07:30am 9.1 4.9 8.2 94 0.5 WSW 20 28 11 15 1015.2 1015.6 0.0
23/07:00am 9.0 5.0 8.2 95 0.4 WSW 19 24 10 13 1014.9 1015.2 0.0
23/06:30am 8.8 4.8 8.2 96 0.3 WSW 19 24 10 13 1014.5 1014.9 0.0
23/06:00am 8.9 4.9 8.1 95 0.4 WSW 19 26 10 14 1014.0 1014.3 0.0
23/05:30am 8.3 5.3 7.7 96 0.3 W 13 17 7 9 1013.7 1014.1 0.0
23/05:00am 7.1 3.9 6.7 97 0.2 W 13 17 7 9 1013.7 1014.1 0.0
23/04:30am 6.4 3.0 5.8 96 0.3 WSW 13 17 7 9 1013.9 1014.2 0.0
23/04:00am 5.9 2.7 5.0 94 0.4 W 11 15 6 8 1014.1 1014.5 0.0
23/03:30am 6.3 2.1 4.0 85 1.0 W 15 20 8 11 1014.1 1014.5 0.0
23/03:00am 7.1 3.9 3.3 77 1.7 WNW 9 11 5 6 1014.6 1015.0 0.0
23/02:30am 6.1 3.3 2.9 80 1.4 S 7 11 4 6 1014.9 1015.2 0.0
23/02:00am 7.5 3.5 3.0 73 2.0 W 13 17 7 9 1014.7 1015.1 0.0
23/01:30am 7.3 2.5 2.4 71 2.2 W 17 20 9 11 1014.6 1015.0 0.0
23/01:00am 6.1 1.4 2.9 80 1.4 W 17 20 9 11 1014.7 1015.1 0.0
23/12:30am 5.6 1.0 3.8 88 0.8 W 17 20 9 11 1015.1 1015.5 0.0
23/12:00am 5.8 0.9 4.0 88 0.8 W 19 22 10 12 1015.3 1015.7 0.0
 
Date/Time
EDT
Temp
°C
App
Temp
°C
Dew
Point
°C
Rel
Hum
%
Delta-T
°C
Wind Press
QNH
hPa
Press
MSL
hPa
Rain since
9am
mm
Dir  Spd
km/h
Gust
km/h
Spd
kts
Gust
kts
22/11:30pm 5.4 0.8 3.9 90 0.7 W 17 19 9 10 1015.4 1015.8 0.0
22/11:00pm 5.4 0.4 3.7 89 0.8 W 19 26 10 14 1015.4 1015.8 0.0
22/10:30pm 5.4 1.1 3.3 86 0.9 W 15 24 8 13 1015.5 1015.9 0.0
22/10:00pm 5.3 0.0 3.0 85 1.0 W 20 26 11 14 1015.3 1015.7 0.0
22/09:30pm 5.3 1.0 3.2 86 0.9 WSW 15 20 8 11 1015.1 1015.5 0.0
22/09:00pm 5.4 1.2 3.9 90 0.7 WSW 15 22 8 12 1014.9 1015.2 0.0
22/08:30pm 5.3 3.0 2.5 82 1.2 SSW 4 9 2 5 1015.0 1015.4 0.0
22/08:00pm 6.6 2.2 2.9 77 1.6 SW 15 26 8 14 1014.5 1014.9 0.0
22/07:30pm 8.1 2.5 3.2 71 2.2 SW 22 32 12 17 1013.9 1014.2 0.0
22/07:00pm 9.3 2.4 2.6 63 3.0 SW 28 35 15 19 1013.6 1014.0 0.0
22/06:30pm 10.5 5.0 3.8 63 3.1 SW 22 32 12 17 1013.3 1013.7 0.0
22/06:00pm 11.8 5.8 3.3 56 4.0 SW 24 35 13 19 1012.9 1013.2 0.0
22/05:30pm 12.2 5.2 3.9 57 4.0 SW 30 35 16 19 1013.0 1013.3 0.0
22/05:00pm 12.4 5.4 3.9 56 4.1 SW 30 39 16 21 1013.0 1013.3 0.0
22/04:30pm 13.6 7.5 4.7 55 4.4 SW 26 39 14 21 1012.7 1013.1 0.0
22/04:00pm 13.5 7.2 3.8 52 4.7 SW 26 43 14 23 1012.7 1013.1 0.0
22/03:30pm 13.0 6.4 4.2 55 4.3 SW 28 39 15 21 1012.7 1013.1 0.0
22/03:00pm 12.9 5.5 3.8 54 4.4 SW 32 46 17 25 1013.2 1013.5 0.0
22/02:30pm 13.4 6.5 4.6 55 4.3 SW 30 41 16 22 1013.3 1013.7 0.0
22/02:00pm 13.3 7.0 5.9 61 3.7 SW 28 37 15 20 1013.3 1013.7 0.0
22/01:30pm 13.0 5.7 5.4 60 3.8 SW 33 43 18 23 1013.1 1013.4 0.0
22/01:00pm 12.7 6.3 5.4 61 3.6 SSW 28 37 15 20 1013.1 1013.4 0.0
22/12:30pm 13.3 7.3 5.5 59 3.9 SW 26 39 14 21 1013.1 1013.4 0.0
22/12:00pm 13.5 7.6 5.7 59 3.9 SW 26 41 14 22 1013.0 1013.3 0.0
22/11:30am 10.8 5.4 4.5 65 3.0 WSW 22 30 12 16 1013.2 1013.5 0.0
22/11:00am 11.1 6.6 6.0 71 2.5 WSW 19 28 10 15 1013.2 1013.5 0.0
22/10:30am 9.9 3.9 5.3 73 2.2 SW 26 35 14 19 1013.0 1013.3 0.0
22/10:00am 9.2 2.0 5.0 75 2.0 SW 32 41 17 22 1013.1 1013.4 0.0
22/09:30am 7.9 0.6 4.5 79 1.6 SW 32 43 17 23 1013.0 1013.3 0.0
22/09:00am 8.0 0.7 4.6 79 1.6 SW 32 44 17 24 1012.9 1013.2 0.0
22/08:30am 7.0 0.5 4.5 84 1.2 SW 28 37 15 20 1012.6 1013.0 0.0
22/08:00am 7.0 1.7 5.0 87 0.9 SW 22 32 12 17 1012.4 1012.7 0.0
22/07:30am 5.2 -2.1 4.6 96 0.3 SW 32 43 17 23 1012.0 1012.3 0.0
22/07:00am 4.7 -1.9 4.4 98 0.1 SW 28 39 15 21 1011.8 1012.1 0.0
22/06:30am 4.4 -2.2 4.3 99 0.0 SW 28 33 15 18 1011.6 1012.0 0.0
22/06:00am 4.5 -0.5 4.4 99 0.0 WSW 20 26 11 14 1011.5 1011.8 0.0
22/05:30am 4.6 0.5 4.5 99 0.0 SW 15 19 8 10 1011.6 1012.0 0.0
22/05:00am 4.6 -0.8 4.5 99 0.0 WSW 22 30 12 16 1011.2 1011.5 0.0
22/04:30am 4.4 -0.1 4.3 99 0.0 SW 17 22 9 12 1011.8 1012.1 0.0
22/04:00am 4.3 0.2 4.2 99 0.0 SW 15 20 8 11 1011.8 1012.1 0.0
22/03:30am 4.4 1.4 4.3 99 0.0 SW 9 11 5 6 1012.0 1012.3 0.0
22/03:00am 4.4 1.1 4.3 99 0.0 WSW 11 15 6 8 1012.2 1012.5 0.0
22/02:30am 4.8 1.4 4.1 95 0.3 WSW 11 15 6 8 1012.3 1012.6 0.0
22/02:00am 4.7 1.3 4.1 96 0.3 WSW 11 15 6 8 1012.6 1013.0 0.0
22/01:30am 4.6 0.0 3.7 94 0.4 WSW 17 22 9 12 1013.0 1013.3 0.0
22/01:00am 4.8 -1.1 3.9 94 0.4 WSW 24 35 13 19 1013.4 1013.8 0.0
22/12:30am 4.8 -2.2 3.9 94 0.4 WSW 30 37 16 20 1013.1 1013.4 0.0
22/12:00am 4.6 -2.4 4.0 96 0.3 WSW 30 37 16 20 1013.0 1013.3 0.0
 
Date/Time
EDT
Temp
°C
App
Temp
°C
Dew
Point
°C
Rel
Hum
%
Delta-T
°C
Wind Press
QNH
hPa
Press
MSL
hPa
Rain since
9am
mm
Dir  Spd
km/h
Gust
km/h
Spd
kts
Gust
kts
21/11:30pm 4.7 -1.6 4.0 95 0.3 WSW 26 35 14 19 1013.4 1013.8 0.0
21/11:00pm 5.0 -1.2 4.1 94 0.4 WSW 26 41 14 22 1013.5 1013.9 0.0
21/10:30pm 5.1 -0.7 4.2 94 0.4 WSW 24 37 13 20 1014.0 1014.3 0.0
21/10:00pm 5.2 -1.0 4.3 94 0.4 WSW 26 37 14 20 1014.1 1014.5 0.0
21/09:30pm 5.2 -0.7 4.0 92 0.5 WSW 24 32 13 17 1014.0 1014.3 0.0
21/09:00pm 5.4 -0.5 3.9 90 0.7 WSW 24 35 13 19 1014.2 1014.6 0.0
21/08:30pm 5.6 0.5 3.9 89 0.8 W 20 26 11 14 1014.2 1014.6 0.0
21/08:00pm 5.9 0.8 3.9 87 0.9 WSW 20 30 11 16 1014.4 1014.8 0.0
21/07:30pm 5.9 0.4 3.9 87 0.9 WSW 22 32 12 17 1014.5 1014.9 0.0
21/07:00pm 6.0 0.1 3.7 85 1.0 WSW 24 35 13 19 1014.3 1014.7 0.0
21/06:30pm 7.4 0.8 4.0 79 1.6 WSW 28 35 15 19 1014.5 1014.9 0.0
21/06:00pm 7.0 0.9 4.8 86 1.0 WSW 26 33 14 18 1014.6 1015.0 0.0
21/05:30pm 7.3 1.1 4.1 80 1.5 WSW 26 35 14 19 1014.9 1015.2 0.0
21/05:00pm 7.7 0.3 3.9 77 1.7 WSW 32 41 17 22 1015.1 1015.5 0.0
21/04:30pm 8.3 1.0 4.3 76 1.9 SW 32 39 17 21 1015.2 1015.6 0.0
21/04:00pm 8.8 2.2 4.4 74 2.1 WSW 28 35 15 19 1015.4 1015.8 0.0
21/03:30pm 9.1 2.6 4.5 73 2.2 WSW 28 37 15 20 1015.6 1016.0 0.0
21/03:00pm 9.7 2.9 5.1 73 2.2 WSW 30 41 16 22 1016.2 1016.6 0.0
21/02:30pm 9.7 3.8 4.1 68 2.6 SW 24 32 13 17 1016.4 1016.8 0.0
21/02:00pm 9.6 3.0 4.2 69 2.5 WSW 28 39 15 21 1016.7 1017.2 0.0
21/01:30pm 9.7 2.7 4.3 69 2.5 SW 30 41 16 22 1017.0 1017.4 0.0
21/01:00pm 10.1 3.6 4.5 68 2.7 WSW 28 39 15 21 1017.2 1017.6 0.0
21/12:30pm 9.5 3.6 4.1 69 2.5 WSW 24 33 13 18 1017.4 1017.9 0.0
21/12:00pm 10.1 3.8 3.8 65 2.9 WSW 26 37 14 20 1017.6 1018.1 0.0
21/11:30am 10.0 4.1 4.0 66 2.8 SW 24 35 13 19 1018.0 1018.4 0.0
21/11:00am 9.0 3.0 3.4 68 2.6 WSW 24 35 13 19 1018.1 1018.5 0.0
21/10:30am 9.6 4.3 4.8 72 2.3 SW 22 32 12 17 1018.2 1018.7 0.0
21/10:00am 8.3 2.4 3.8 73 2.1 WSW 24 32 13 17 1018.2 1018.7 0.0
21/09:30am 6.4 0.7 3.0 79 1.5 WSW 22 32 12 17 1018.5 1019.0 0.0
21/09:00am 4.8 -1.0 2.5 85 1.0 WSW 22 32 12 17 1018.7 1019.2 0.2
21/08:30am 4.1 -1.3 2.6 90 0.6 WSW 20 26 11 14 1018.8 1019.3 0.2
21/08:00am 3.5 -2.0 1.9 89 0.7 WSW 20 26 11 14 1019.0 1019.4 0.2
21/07:30am 3.4 -1.9 1.6 88 0.8 WSW 19 28 10 15 1019.1 1019.6 0.2
21/07:00am 2.9 -3.0 1.7 92 0.5 WSW 22 28 12 15 1019.3 1019.8 0.2
21/06:30am 1.8 -2.9 1.2 96 0.2 SW 15 20 8 11 1019.4 1019.9 0.2
21/06:00am 1.8 -5.0 0.8 93 0.4 WSW 26 33 14 18 1019.2 1019.7 0.2
21/05:30am 1.7 -6.3 0.4 91 0.5 WSW 32 43 17 23 1018.8 1019.3 0.2
21/05:00am 1.7 -4.4 0.5 92 0.5 W 22 32 12 17 1019.3 1019.8 0.2
21/04:30am 1.9 -3.2 0.6 91 0.5 WSW 17 22 9 12 1019.7 1020.2 0.2
21/04:00am 1.8 -3.7 0.5 91 0.5 WSW 19 26 10 14 1019.8 1020.4 0.2
21/03:30am 1.4 -3.8 0.4 93 0.4 WSW 17 26 9 14 1020.1 1020.6 0.2
21/03:00am 1.3 -3.8 0.6 95 0.3 SW 17 22 9 12 1020.0 1020.5 0.2
21/02:30am 1.6 -4.9 0.6 93 0.4 WSW 24 35 13 19 1019.8 1020.4 0.2
21/02:00am 1.8 -4.7 0.3 90 0.6 WSW 24 32 13 17 1020.4 1020.9 0.2
21/01:30am 1.4 -5.9 0.2 92 0.5 WSW 28 39 15 21 1020.8 1021.4 0.2
21/01:00am 1.9 -6.3 0.3 89 0.6 W 33 43 18 23 1020.7 1021.3 0.2
21/12:50am 1.9 -6.3 0.1 88 0.7 W 33 48 18 26 1021.1 1021.6 0.2
21/12:30am 2.0 -3.8 0.2 88 0.7 W 20 30 11 16 1022.2 1022.7 0.2
21/12:00am 2.1 -3.5 0.2 87 0.8 W 19 33 10 18 1022.3 1022.9 0.2
 
Date/Time
EDT
Temp
°C
App
Temp
°C
Dew
Point
°C
Rel
Hum
%
Delta-T
°C
Wind Press
QNH
hPa
Press
MSL
hPa
Rain since
9am
mm
Dir  Spd
km/h
Gust
km/h
Spd
kts
Gust
kts
20/11:30pm 1.9 -5.8 0.1 88 0.7 WSW 30 41 16 22 1022.5 1023.1 0.2
20/11:00pm 1.7 -4.8 0.1 89 0.6 WSW 24 30 13 16 1022.9 1023.5 0.2
20/10:30pm 1.7 -2.8 -0.1 88 0.7 W 13 17 7 9 1022.9 1023.5 0.2
20/10:00pm 1.6 -2.5 0.0 89 0.6 W 11 17 6 9 1023.2 1023.8 0.2
20/09:30pm 1.2 -2.5 -0.1 91 0.5 WNW 9 13 5 7 1023.1 1023.6 0.2
20/09:00pm 0.2 -2.7 -1.2 90 0.5 WNW 4 7 2 4 1023.1 1023.6 0.2
20/08:30pm 0.9 -2.5 -0.7 89 0.6 SW 7 11 4 6 1023.2 1023.8 0.2
20/08:00pm 1.8 -3.1 -0.4 85 0.9 WSW 15 20 8 11 1023.1 1023.6 0.2
20/07:30pm 2.6 -2.6 0.0 83 1.0 SW 17 24 9 13 1022.6 1023.2 0.2

Other Formats:

Comma delimited format used in spreadsheet applications
http://www.bom.gov.au/fwo/IDT60801/IDT60801.95959.axf

JavaScript Object Notation format (JSON) in row-major order
http://www.bom.gov.au/fwo/IDT60801/IDT60801.95959.json